Time;durP1;ratioP1;P1;durP2;ratioP2;P2;SDS_P1;SDS_P2;PMS_P1;PMS_P2;Temp;Humidity;BMP_temperature;BMP_pressure;BME280_temperature;BME280_humidity;BME280_pressure;Samples;Min_cycle;Max_cycle;Signal;HPM_P1;HPM_P2
2022/01/08 07:54:32;;;;;;;4.43;1.97;;;-1.50;95.10;;;;;;5120545;27;20108;-77
2022/01/08 07:56:58;;;;;;;5.33;2.17;;;-1.30;94.60;;;;;;5121530;28;20416;-75
2022/01/08 07:59:24;;;;;;;6.10;2.67;;;-1.20;94.00;;;;;;5118270;28;20462;-74
2022/01/08 08:01:50;;;;;;;9.13;4.27;;;-1.10;93.70;;;;;;5121983;28;20092;-75
2022/01/08 08:04:15;;;;;;;7.73;3.87;;;-1.10;94.00;;;;;;5110827;28;20027;-74
2022/01/08 08:06:47;;;;;;;6.93;2.47;;;-1.10;94.60;;;;;;5118018;28;20036;-74
2022/01/08 08:09:13;;;;;;;7.53;2.57;;;-1.10;94.30;;;;;;5113056;28;20023;-74
2022/01/08 08:11:39;;;;;;;5.27;2.53;;;-1.00;94.30;;;;;;5114166;28;20031;-74
2022/01/08 08:14:04;;;;;;;4.20;2.07;;;-0.90;94.40;;;;;;5119897;27;20499;-74
2022/01/08 08:16:30;;;;;;;4.10;1.80;;;-0.80;94.60;;;;;;5120720;27;20031;-75
2022/01/08 08:18:56;;;;;;;6.07;2.30;;;-0.70;95.00;;;;;;5118650;28;20027;-74
2022/01/08 08:21:21;;;;;;;4.97;2.23;;;-0.60;95.00;;;;;;5117295;28;20375;-74
2022/01/08 08:23:47;;;;;;;8.80;4.87;;;-0.60;94.80;;;;;;5119423;28;20011;-75
2022/01/08 08:26:13;;;;;;;10.60;4.40;;;-0.60;95.30;;;;;;5120403;28;20034;-75
2022/01/08 08:28:38;;;;;;;7.70;3.63;;;-0.70;95.40;;;;;;5116547;28;20058;-74
2022/01/08 08:31:04;;;;;;;7.47;4.00;;;-0.70;94.70;;;;;;5113333;28;20346;-74
2022/01/08 08:33:30;;;;;;;6.80;3.27;;;-0.60;94.90;;;;;;5118855;28;20023;-75
2022/01/08 08:35:55;;;;;;;7.03;2.78;;;-0.50;95.40;;;;;;5114255;27;20039;-76
2022/01/08 08:38:21;;;;;;;7.60;3.10;;;-0.40;95.20;;;;;;5115287;27;20032;-77
2022/01/08 08:40:47;;;;;;;6.88;3.08;;;-0.30;95.20;;;;;;5110251;27;20049;-75
2022/01/08 08:43:13;;;;;;;5.28;2.70;;;-0.20;95.10;;;;;;5121224;28;20044;-81
2022/01/08 08:45:40;;;;;;;6.35;3.05;;;-0.10;94.30;;;;;;5114838;27;20384;-76
2022/01/08 08:48:06;;;;;;;8.77;3.40;;;0.00;93.80;;;;;;5118560;28;20080;-76
2022/01/08 08:50:32;;;;;;;6.43;3.25;;;0.00;93.80;;;;;;5110892;27;20389;-78
2022/01/08 08:52:58;;;;;;;5.60;3.00;;;0.20;93.80;;;;;;5120024;27;20051;-82
2022/01/08 08:55:23;;;;;;;8.18;2.55;;;0.00;93.40;;;;;;5119789;27;20019;-81
2022/01/08 08:57:49;;;;;;;9.70;3.95;;;0.10;93.50;;;;;;5119352;28;20496;-77
2022/01/08 09:00:15;;;;;;;6.72;3.70;;;0.10;94.10;;;;;;5116790;27;20106;-78
2022/01/08 09:02:42;;;;;;;8.20;4.40;;;0.00;94.50;;;;;;5111764;27;20088;-77
2022/01/08 09:05:08;;;;;;;10.00;3.53;;;0.00;94.80;;;;;;5090600;28;20110;-81
2022/01/08 09:07:34;;;;;;;6.75;3.60;;;0.00;94.90;;;;;;5101929;28;20019;-78
2022/01/08 09:10:02;;;;;;;10.55;3.80;;;-0.10;94.90;;;;;;5101590;28;20015;-77
2022/01/08 09:12:28;;;;;;;8.48;3.80;;;-0.10;95.40;;;;;;5105810;28;20024;-78
2022/01/08 09:14:54;;;;;;;8.32;4.60;;;-0.20;95.30;;;;;;5107614;28;20111;-78
2022/01/08 09:17:20;;;;;;;6.97;3.78;;;-0.10;95.20;;;;;;5100980;28;20103;-77
2022/01/08 09:19:46;;;;;;;7.40;4.90;;;-0.10;94.70;;;;;;5096963;28;20027;-77
2022/01/08 09:22:13;;;;;;;8.10;4.82;;;0.00;94.60;;;;;;5101620;28;20386;-77
2022/01/08 09:24:40;;;;;;;8.27;4.40;;;0.10;94.60;;;;;;5102414;28;20032;-75
2022/01/08 09:27:06;;;;;;;5.95;3.65;;;0.00;94.60;;;;;;5096797;28;20047;-77
2022/01/08 09:29:32;;;;;;;6.68;3.45;;;-0.20;94.50;;;;;;5103492;28;20456;-76
2022/01/08 09:31:59;;;;;;;7.93;3.65;;;-0.10;94.80;;;;;;5103412;28;20030;-76
2022/01/08 09:34:25;;;;;;;6.30;3.47;;;-0.30;94.50;;;;;;5102719;28;20118;-76
2022/01/08 09:36:51;;;;;;;7.43;3.72;;;-0.30;94.90;;;;;;5101697;27;20046;-79
2022/01/08 09:39:17;;;;;;;8.63;3.40;;;-0.20;94.40;;;;;;5090708;28;20902;-76
2022/01/08 09:41:43;;;;;;;7.18;3.33;;;0.00;93.80;;;;;;5100550;28;20015;-76
2022/01/08 09:44:11;;;;;;;8.65;3.78;;;0.10;93.90;;;;;;5102168;28;20046;-76
2022/01/08 09:46:36;;;;;;;8.07;4.30;;;0.00;93.90;;;;;;5103795;28;20119;-77
2022/01/08 09:49:03;;;;;;;6.03;3.10;;;-0.10;94.00;;;;;;5095644;28;20107;-77
2022/01/08 09:51:29;;;;;;;5.72;3.20;;;-0.20;94.00;;;;;;5100505;28;20553;-77
2022/01/08 09:53:54;;;;;;;5.95;2.67;;;-0.20;94.30;;;;;;5098045;28;20047;-78
2022/01/08 09:56:22;;;;;;;6.68;2.70;;;-0.10;94.80;;;;;;5094377;28;20577;-76
2022/01/08 09:58:48;;;;;;;7.32;2.28;;;0.00;94.20;;;;;;5099135;28;20027;-78
2022/01/08 10:01:32;;;;;;;4.80;2.58;;;0.00;93.60;;;;;;5095163;28;20047;-79
2022/01/08 10:04:00;;;;;;;4.55;2.40;;;0.10;93.00;;;;;;5093074;28;20042;-80
2022/01/08 10:06:32;;;;;;;4.68;2.08;;;0.20;93.30;;;;;;5096913;28;20084;-80
2022/01/08 10:08:58;;;;;;;8.02;2.55;;;0.90;95.30;;;;;;5096384;28;20386;-79
2022/01/08 10:11:25;;;;;;;6.63;3.33;;;0.50;93.10;;;;;;5102251;28;20023;-79
2022/01/08 10:14:06;;;;;;;5.70;3.03;;;0.40;92.70;;;;;;5103222;28;20044;-77
2022/01/08 10:19:26;;;;;;;;;;;0.30;93.40;;;;;;5096809;28;20460;-77
2022/01/08 10:21:53;;;;;;;7.47;4.15;;;0.30;93.60;;;;;;5103250;28;19914;-78
2022/01/08 10:24:23;;;;;;;6.70;2.92;;;0.40;93.60;;;;;;5100946;28;20392;-78
2022/01/08 10:26:51;;;;;;;5.93;2.72;;;0.20;94.00;;;;;;5104337;28;20168;-77
2022/01/08 10:29:22;;;;;;;6.07;2.92;;;0.30;93.50;;;;;;5102874;27;20024;-77
2022/01/08 10:31:50;;;;;;;5.20;3.03;;;0.30;93.00;;;;;;5101266;28;20076;-78
2022/01/08 10:34:24;;;;;;;9.63;5.72;;;0.30;94.00;;;;;;5095459;28;20038;-78
2022/01/08 10:36:56;;;;;;;5.47;2.65;;;0.20;93.50;;;;;;5101086;28;20023;-77
2022/01/08 10:39:36;;;;;;;5.05;3.00;;;0.30;92.70;;;;;;5103796;28;20028;-77
2022/01/08 10:42:13;;;;;;;5.82;2.63;;;0.40;92.90;;;;;;5095721;28;20419;-78
2022/01/08 10:44:40;;;;;;;6.00;2.55;;;0.30;92.50;;;;;;5095807;28;20039;-78
2022/01/08 10:47:16;;;;;;;4.85;2.35;;;0.30;92.80;;;;;;5095679;28;20428;-78
2022/01/08 10:49:48;;;;;;;6.18;2.70;;;0.40;92.50;;;;;;5083349;28;20534;-77
2022/01/08 10:52:17;;;;;;;9.02;2.95;;;0.50;92.90;;;;;;5104285;28;20458;-78
2022/01/08 10:54:45;;;;;;;5.53;3.15;;;0.80;92.90;;;;;;5103626;28;20073;-78
2022/01/08 10:57:14;;;;;;;9.05;3.80;;;0.80;92.50;;;;;;5107348;28;20035;-78
2022/01/08 10:59:40;;;;;;;7.95;3.13;;;0.80;92.10;;;;;;5106007;28;20027;-78
2022/01/08 11:02:13;;;;;;;5.72;2.50;;;0.90;92.20;;;;;;5107110;27;20054;-77
2022/01/08 11:04:52;;;;;;;5.47;2.83;;;1.20;92.10;;;;;;5104311;27;20024;-77
2022/01/08 11:07:24;;;;;;;7.00;3.03;;;1.10;91.40;;;;;;5099170;28;20039;-78
2022/01/08 11:09:55;;;;;;;6.43;2.58;;;1.10;91.80;;;;;;5106802;28;20031;-77
2022/01/08 11:12:29;;;;;;;6.47;2.70;;;1.20;91.50;;;;;;5105749;28;20031;-77
2022/01/08 11:17:46;;;;;;;6.32;2.92;;;1.40;91.60;;;;;;5106437;28;20031;-78
2022/01/08 11:20:15;;;;;;;6.72;2.25;;;1.50;91.20;;;;;;5100111;28;20032;-78
2022/01/08 11:22:43;;;;;;;7.13;2.80;;;1.40;90.90;;;;;;5106091;27;20040;-77
2022/01/08 11:25:17;;;;;;;5.63;1.98;;;1.40;91.20;;;;;;5101939;28;20039;-78
2022/01/08 11:27:52;;;;;;;5.27;2.60;;;1.50;91.30;;;;;;5102750;28;20524;-77
2022/01/08 11:30:25;;;;;;;4.43;2.55;;;1.60;91.20;;;;;;5106069;28;20036;-77
2022/01/08 11:32:59;;;;;;;6.07;3.65;;;1.70;91.30;;;;;;5102418;28;20046;-77
2022/01/08 11:35:26;;;;;;;7.55;3.30;;;1.70;91.10;;;;;;5103820;28;20028;-78
2022/01/08 11:37:56;;;;;;;6.85;3.00;;;1.80;91.20;;;;;;5104533;28;20566;-77
2022/01/08 11:40:26;;;;;;;4.45;2.50;;;2.00;90.90;;;;;;5094149;28;20058;-78
2022/01/08 11:42:52;;;;;;;7.13;2.55;;;1.80;90.40;;;;;;5103110;28;20167;-77
2022/01/08 11:45:27;;;;;;;6.45;2.50;;;1.90;90.70;;;;;;5103283;28;20028;-77
2022/01/08 11:47:55;;;;;;;;;;;1.90;90.70;;;;;;5105945;28;20106;-77
2022/01/08 11:50:23;;;;;;;5.75;2.80;;;1.90;90.80;;;;;;5101983;28;19943;-77
2022/01/08 11:53:10;;;;;;;6.50;3.45;;;1.90;90.50;;;;;;5099199;28;20209;-78
2022/01/08 11:55:36;;;;;;;6.97;2.55;;;2.10;90.80;;;;;;5100820;28;20109;-77
2022/01/08 11:58:15;;;;;;;7.45;2.55;;;2.10;90.80;;;;;;5102394;28;20051;-78
2022/01/08 12:00:51;;;;;;;9.65;4.05;;;2.20;90.40;;;;;;5100032;28;20074;-77
2022/01/08 12:03:22;;;;;;;5.70;2.60;;;2.20;90.30;;;;;;5086513;28;20041;-77
2022/01/08 12:05:48;;;;;;;7.90;3.92;;;2.30;90.20;;;;;;5106099;28;20378;-78
2022/01/08 12:08:16;;;;;;;7.35;3.80;;;2.60;90.40;;;;;;5102722;28;20084;-77
2022/01/08 12:10:57;;;;;;;5.30;2.80;;;2.50;90.10;;;;;;5097387;28;20103;-78
2022/01/08 12:14:07;;;;;;;6.68;3.38;;;2.50;90.30;;;;;;5100996;28;20035;-77
2022/01/08 12:16:37;;;;;;;5.40;2.58;;;2.60;90.20;;;;;;5072424;28;20075;-77
2022/01/08 12:19:05;;;;;;;5.80;2.80;;;2.60;90.20;;;;;;5105714;28;20055;-78
2022/01/08 12:21:34;;;;;;;6.13;3.38;;;2.60;90.00;;;;;;5096365;28;20032;-77
2022/01/08 12:24:28;;;;;;;4.68;2.38;;;2.90;90.30;;;;;;5104348;28;20138;-77
2022/01/08 12:27:01;;;;;;;5.97;3.50;;;3.00;89.10;;;;;;5105481;28;20694;-77
2022/01/08 12:29:39;;;;;;;6.35;2.90;;;3.00;89.10;;;;;;5102689;28;20090;-77
2022/01/08 12:32:35;;;;;;;4.97;2.60;;;3.10;88.90;;;;;;5099605;28;20031;-77
2022/01/08 12:35:38;;;;;;;8.52;3.13;;;3.30;89.60;;;;;;5104236;28;20028;-77
2022/01/08 12:38:06;;;;;;;4.78;2.30;;;3.60;89.60;;;;;;5103345;28;20019;-78
2022/01/08 12:40:50;;;;;;;5.13;2.80;;;3.50;88.20;;;;;;5084620;27;20028;-77
2022/01/08 12:43:30;;;;;;;6.40;2.88;;;3.50;88.40;;;;;;5104057;27;20039;-77
2022/01/08 12:46:17;;;;;;;4.88;3.15;;;3.40;88.40;;;;;;5105935;28;20028;-78
2022/01/08 12:49:18;;;;;;;6.93;2.85;;;3.60;88.70;;;;;;5103304;28;20036;-77
2022/01/08 12:51:44;;;;;;;7.13;2.72;;;3.30;89.20;;;;;;5018916;28;20052;-80
2022/01/08 12:54:10;;;;;;;7.55;3.35;;;3.20;88.50;;;;;;5091296;28;20114;-79
2022/01/08 12:56:46;;;;;;;6.28;2.97;;;3.20;89.20;;;;;;5111931;28;20031;-80
2022/01/08 12:59:12;;;;;;;6.47;2.83;;;3.10;88.90;;;;;;5122510;28;20059;-79
2022/01/08 13:01:40;;;;;;;6.78;3.08;;;3.10;89.20;;;;;;5100679;28;20051;-80
2022/01/08 13:04:14;;;;;;;7.43;3.40;;;3.20;89.60;;;;;;5105685;28;20031;-79
2022/01/08 13:06:40;;;;;;;6.15;3.38;;;3.20;89.50;;;;;;5109992;28;20016;-79
2022/01/08 13:09:08;;;;;;;8.75;3.33;;;3.20;89.40;;;;;;5106643;28;20035;-80
2022/01/08 13:11:35;;;;;;;5.00;2.90;;;3.30;89.20;;;;;;5108031;28;20034;-79
2022/01/08 13:14:05;;;;;;;6.03;2.88;;;3.30;89.20;;;;;;5101248;28;20031;-80
2022/01/08 13:16:45;;;;;;;7.75;3.42;;;3.30;89.20;;;;;;5109428;28;20100;-80
2022/01/08 13:19:14;;;;;;;6.38;3.00;;;3.40;90.00;;;;;;5098918;28;20028;-79
2022/01/08 13:21:48;;;;;;;7.50;2.80;;;3.30;88.30;;;;;;5107163;28;20031;-79
2022/01/08 13:24:22;;;;;;;7.93;3.42;;;3.30;89.10;;;;;;5108334;28;20043;-80
2022/01/08 13:26:59;;;;;;;6.65;3.00;;;3.20;88.50;;;;;;5108774;28;20027;-79
2022/01/08 13:29:32;;;;;;;6.55;3.10;;;3.10;87.80;;;;;;5105502;28;20055;-79
2022/01/08 13:31:59;;;;;;;6.15;3.25;;;3.10;88.20;;;;;;5109528;28;20032;-79
2022/01/08 13:34:30;;;;;;;6.20;3.38;;;3.20;89.00;;;;;;5105766;28;20123;-79
2022/01/08 13:37:06;;;;;;;5.55;3.42;;;3.30;88.30;;;;;;5086739;28;20134;-80
2022/01/08 13:39:39;;;;;;;6.95;2.72;;;3.40;88.70;;;;;;5108258;28;20595;-79
2022/01/08 13:42:10;;;;;;;6.18;3.20;;;3.30;88.80;;;;;;5104831;27;20646;-80
2022/01/08 13:44:38;;;;;;;7.80;2.50;;;3.40;88.70;;;;;;5105791;27;20051;-80
2022/01/08 13:47:04;;;;;;;5.78;2.50;;;3.40;88.20;;;;;;5108824;28;20024;-80
2022/01/08 13:49:30;;;;;;;5.22;2.55;;;3.30;87.00;;;;;;5108132;28;20061;-79
2022/01/08 13:51:56;;;;;;;6.00;2.50;;;3.30;87.00;;;;;;5107660;27;20027;-79
2022/01/08 13:54:34;;;;;;;5.43;2.75;;;3.30;88.10;;;;;;5105042;28;20048;-79
2022/01/08 13:57:19;;;;;;;6.22;3.05;;;3.40;87.90;;;;;;5100479;28;20041;-79
2022/01/08 13:59:45;;;;;;;5.47;3.15;;;3.40;87.70;;;;;;5101138;28;20027;-79
2022/01/08 14:02:11;;;;;;;6.90;2.72;;;3.40;87.30;;;;;;5108658;28;20160;-80
2022/01/08 14:04:38;;;;;;;5.65;3.00;;;3.40;86.80;;;;;;5103396;28;20042;-79
2022/01/08 14:07:04;;;;;;;6.13;2.92;;;3.40;87.90;;;;;;5106475;28;20030;-80
2022/01/08 14:09:32;;;;;;;7.38;2.63;;;3.40;87.30;;;;;;5105329;28;20031;-79
2022/01/08 14:12:14;;;;;;;5.80;2.10;;;3.50;87.30;;;;;;5102578;28;20118;-80
2022/01/08 14:14:50;;;;;;;8.88;2.45;;;3.50;87.60;;;;;;5102760;28;20115;-79
2022/01/08 14:17:18;;;;;;;5.10;2.75;;;3.50;87.30;;;;;;5107499;28;20027;-79
2022/01/08 14:19:45;;;;;;;6.65;2.70;;;3.40;86.90;;;;;;5104501;28;20768;-79
2022/01/08 14:22:12;;;;;;;5.82;2.63;;;3.50;87.80;;;;;;5108332;28;20027;-80
2022/01/08 14:24:40;;;;;;;5.13;2.55;;;3.60;87.30;;;;;;5103939;28;20385;-79
2022/01/08 14:27:13;;;;;;;5.93;3.65;;;3.60;87.40;;;;;;5103028;28;20394;-79
2022/01/08 14:29:47;;;;;;;8.55;3.60;;;3.70;88.00;;;;;;5105355;28;20031;-79
2022/01/08 14:32:16;;;;;;;4.15;2.40;;;3.70;87.70;;;;;;5100627;28;20051;-80
2022/01/08 14:34:45;;;;;;;5.68;3.22;;;3.50;87.50;;;;;;5102090;28;20062;-79
2022/01/08 14:37:16;;;;;;;6.22;3.15;;;3.40;87.60;;;;;;5096914;28;20780;-79
2022/01/08 14:39:45;;;;;;;8.25;2.80;;;3.40;88.50;;;;;;5104115;28;20061;-79
2022/01/08 14:42:17;;;;;;;5.00;2.50;;;3.30;88.10;;;;;;5105579;28;20063;-80
2022/01/08 14:45:01;;;;;;;5.28;2.90;;;3.30;88.20;;;;;;5093724;28;20119;-79
2022/01/08 14:47:40;;;;;;;4.20;2.30;;;3.30;89.10;;;;;;5107562;28;20502;-79
2022/01/08 14:50:11;;;;;;;4.95;2.28;;;3.20;88.60;;;;;;5105021;28;20027;-79
2022/01/08 14:52:38;;;;;;;4.50;2.83;;;3.10;88.60;;;;;;5106264;28;20160;-79
2022/01/08 14:55:07;;;;;;;9.18;2.60;;;3.00;88.60;;;;;;5104342;28;20484;-79
2022/01/08 14:57:33;;;;;;;5.57;2.47;;;3.00;88.70;;;;;;5107180;28;20023;-79
2022/01/08 15:00:00;;;;;;;6.53;2.83;;;2.90;88.60;;;;;;5100013;28;20032;-78
2022/01/08 15:02:26;;;;;;;8.48;2.78;;;3.30;93.20;;;;;;5094022;28;20020;-82
2022/01/08 15:04:53;;;;;;;6.35;3.55;;;3.80;89.40;;;;;;5097774;28;20024;-79
2022/01/08 15:07:28;;;;;;;5.57;2.92;;;3.10;86.90;;;;;;5098358;28;20076;-80
2022/01/08 15:09:54;;;;;;;8.65;3.40;;;2.80;87.70;;;;;;5098683;28;20031;-75
2022/01/08 15:12:20;;;;;;;7.50;3.50;;;2.90;88.50;;;;;;5096889;28;20024;-75
2022/01/08 15:14:45;;;;;;;10.40;3.72;;;2.60;87.60;;;;;;5099923;28;20027;-77
2022/01/08 15:17:11;;;;;;;11.25;4.60;;;2.50;87.30;;;;;;5094102;28;20374;-75
2022/01/08 15:19:37;;;;;;;9.77;4.07;;;2.40;87.00;;;;;;5101232;28;20039;-74
2022/01/08 15:22:03;;;;;;;7.70;2.92;;;2.20;87.80;;;;;;5103689;28;20035;-74
2022/01/08 15:24:33;;;;;;;8.93;3.85;;;2.30;87.60;;;;;;5103456;28;20108;-75
2022/01/08 15:27:00;;;;;;;7.22;3.30;;;2.30;87.00;;;;;;5103677;28;20103;-76
2022/01/08 15:29:27;;;;;;;9.52;3.72;;;2.10;87.30;;;;;;5105035;28;20024;-75
2022/01/08 15:31:54;;;;;;;8.93;3.95;;;2.20;87.80;;;;;;5100047;27;20020;-74
2022/01/08 15:34:21;;;;;;;7.35;3.33;;;2.40;88.00;;;;;;5103412;28;20032;-74
2022/01/08 15:36:46;;;;;;;7.68;3.03;;;2.50;87.20;;;;;;5092555;28;20031;-76
2022/01/08 15:39:12;;;;;;;7.82;3.13;;;2.70;88.20;;;;;;5096438;28;20027;-75
2022/01/08 15:41:38;;;;;;;7.65;3.28;;;2.70;86.70;;;;;;5106015;28;20034;-75
2022/01/08 15:44:06;;;;;;;5.72;2.72;;;2.60;87.00;;;;;;5106350;28;20047;-76
2022/01/08 15:46:32;;;;;;;6.68;3.10;;;2.20;88.60;;;;;;5105178;28;20032;-75
2022/01/08 15:48:58;;;;;;;7.75;3.13;;;2.10;89.30;;;;;;5106615;28;20020;-75
2022/01/08 15:51:24;;;;;;;5.93;3.03;;;2.00;89.60;;;;;;5101677;28;20031;-76
2022/01/08 15:53:50;;;;;;;8.90;3.05;;;2.00;88.60;;;;;;5102410;28;20043;-75
2022/01/08 15:56:17;;;;;;;5.68;2.15;;;2.00;88.40;;;;;;5105790;28;20612;-75
2022/01/08 15:58:42;;;;;;;7.45;3.20;;;1.90;89.10;;;;;;5106224;28;20507;-75
2022/01/08 16:01:09;;;;;;;9.07;3.35;;;1.80;88.40;;;;;;5095571;28;20039;-75
2022/01/08 16:03:35;;;;;;;7.80;3.17;;;1.70;89.20;;;;;;5106186;28;20036;-76
2022/01/08 16:06:01;;;;;;;8.27;3.00;;;1.60;89.30;;;;;;5101748;28;20032;-75
2022/01/08 16:08:27;;;;;;;9.50;4.82;;;1.60;89.90;;;;;;5104446;28;20024;-75
2022/01/08 16:10:54;;;;;;;9.90;4.47;;;1.50;90.00;;;;;;5100028;28;20065;-76
2022/01/08 16:13:21;;;;;;;7.65;3.35;;;1.50;89.80;;;;;;5106036;28;20490;-75
2022/01/08 16:15:50;;;;;;;7.97;4.40;;;1.40;90.00;;;;;;5107858;28;20089;-76
2022/01/08 16:18:16;;;;;;;8.05;3.22;;;1.20;90.30;;;;;;5106111;28;20063;-76
2022/01/08 16:20:44;;;;;;;8.25;3.45;;;1.20;90.40;;;;;;5107920;28;20023;-75
2022/01/08 16:23:10;;;;;;;8.93;3.70;;;1.30;90.30;;;;;;5110100;28;20085;-75
2022/01/08 16:25:39;;;;;;;10.00;3.58;;;1.40;90.10;;;;;;5107072;28;20618;-76
2022/01/08 16:28:06;;;;;;;8.65;4.00;;;1.40;90.00;;;;;;5108057;28;20625;-76
2022/01/08 16:30:32;;;;;;;7.97;3.92;;;1.30;90.40;;;;;;5110152;28;20110;-76
2022/01/08 16:32:57;;;;;;;8.52;4.47;;;1.40;90.20;;;;;;5108320;28;20111;-75
2022/01/08 16:35:23;;;;;;;6.78;3.83;;;1.20;90.50;;;;;;5104350;28;20119;-76
2022/01/08 16:37:49;;;;;;;10.55;5.25;;;1.10;90.80;;;;;;5106806;28;20076;-75
2022/01/08 16:40:15;;;;;;;7.50;4.28;;;1.10;90.60;;;;;;5109899;28;20077;-76
2022/01/08 16:42:41;;;;;;;12.18;4.32;;;1.00;90.70;;;;;;5105110;28;20040;-74
2022/01/08 16:45:07;;;;;;;8.10;3.72;;;3.10;98.90;;;;;;5108960;28;20020;-75
2022/01/08 16:47:33;;;;;;;12.70;3.70;;;2.00;90.00;;;;;;5103538;28;20031;-75
2022/01/08 16:50:00;;;;;;;10.25;3.80;;;1.30;91.20;;;;;;5100337;28;20134;-75
2022/01/08 16:52:27;;;;;;;10.75;3.10;;;0.90;91.70;;;;;;5107402;28;20045;-78
2022/01/08 16:54:53;;;;;;;10.00;4.43;;;0.90;92.80;;;;;;5109549;28;20100;-76
2022/01/08 16:57:20;;;;;;;11.75;4.57;;;0.90;91.80;;;;;;5102276;28;20031;-76
2022/01/08 16:59:46;;;;;;;10.88;4.57;;;1.00;91.70;;;;;;5102178;28;20035;-75
2022/01/08 17:02:12;;;;;;;9.10;4.72;;;1.00;91.50;;;;;;5108335;28;20605;-75
2022/01/08 17:04:38;;;;;;;8.27;4.20;;;1.20;90.80;;;;;;5107229;28;20043;-74
2022/01/08 17:07:04;;;;;;;8.55;4.97;;;1.20;90.50;;;;;;5108883;28;20106;-74
2022/01/08 17:09:31;;;;;;;10.18;4.50;;;1.20;90.80;;;;;;5107648;28;20031;-74
2022/01/08 17:11:57;;;;;;;9.02;4.22;;;1.30;90.70;;;;;;5103738;28;20063;-74
2022/01/08 17:14:24;;;;;;;11.45;5.00;;;1.10;91.20;;;;;;5104571;28;20020;-74
2022/01/08 17:16:51;;;;;;;11.23;5.20;;;1.00;91.30;;;;;;5105662;28;20038;-73
2022/01/08 17:19:21;;;;;;;10.75;4.40;;;1.00;91.10;;;;;;5102965;28;20036;-73
2022/01/08 17:21:47;;;;;;;10.45;5.00;;;1.10;90.90;;;;;;5099675;28;20488;-74
2022/01/08 17:24:13;;;;;;;10.30;5.60;;;1.20;90.50;;;;;;5101577;28;20476;-73
2022/01/08 17:26:39;;;;;;;10.63;4.80;;;1.10;90.60;;;;;;5100797;28;20574;-74
2022/01/08 17:29:05;;;;;;;10.15;4.18;;;1.10;90.70;;;;;;5103889;28;20024;-74
2022/01/08 17:31:31;;;;;;;7.38;3.25;;;1.10;90.80;;;;;;5098418;28;20114;-74
2022/01/08 17:33:57;;;;;;;8.27;3.88;;;1.20;90.80;;;;;;5102940;28;20085;-74
2022/01/08 17:36:25;;;;;;;8.82;4.35;;;0.90;92.10;;;;;;5101647;28;20365;-74
2022/01/08 17:38:51;;;;;;;13.20;5.25;;;1.10;90.70;;;;;;5095968;28;20111;-74
2022/01/08 17:41:20;;;;;;;9.75;5.43;;;1.00;90.60;;;;;;5093141;28;20126;-75
2022/01/08 17:43:46;;;;;;;7.05;3.20;;;1.00;90.70;;;;;;5094481;28;20036;-74
2022/01/08 17:46:12;;;;;;;7.70;3.45;;;1.20;90.60;;;;;;5104076;28;20084;-75
2022/01/08 17:48:37;;;;;;;9.40;3.45;;;1.00;90.90;;;;;;5108544;28;20342;-75
2022/01/08 17:51:03;;;;;;;9.52;4.05;;;0.90;90.60;;;;;;5097845;28;20031;-75
2022/01/08 17:53:29;;;;;;;7.75;4.68;;;0.90;90.50;;;;;;5103140;28;20059;-76
2022/01/08 17:55:55;;;;;;;10.80;4.40;;;0.90;90.50;;;;;;5102677;28;20028;-74
2022/01/08 17:58:21;;;;;;;8.07;3.35;;;0.90;90.40;;;;;;5100097;28;20067;-75
2022/01/08 18:00:47;;;;;;;6.88;3.45;;;1.10;90.00;;;;;;5101688;28;20031;-76
2022/01/08 18:03:13;;;;;;;7.55;4.45;;;1.00;90.30;;;;;;5098484;28;20032;-75
2022/01/08 18:05:39;;;;;;;9.98;4.88;;;1.00;90.50;;;;;;5095499;28;20110;-76
2022/01/08 18:08:05;;;;;;;9.82;5.05;;;0.90;90.80;;;;;;5091118;28;20024;-75
2022/01/08 18:10:31;;;;;;;8.10;5.15;;;1.00;90.60;;;;;;5096326;28;20513;-75
2022/01/08 18:12:57;;;;;;;8.68;3.97;;;0.90;90.50;;;;;;5093525;28;20039;-75
2022/01/08 18:15:22;;;;;;;11.48;4.43;;;1.00;90.50;;;;;;5099578;28;20492;-75
2022/01/08 18:17:48;;;;;;;8.50;4.32;;;1.00;90.30;;;;;;5099752;28;20027;-77
2022/01/08 18:20:17;;;;;;;9.75;4.97;;;1.00;90.40;;;;;;5095199;28;20038;-77
2022/01/08 18:22:43;;;;;;;9.63;5.20;;;1.00;90.50;;;;;;5099329;28;20032;-79
2022/01/08 18:25:10;;;;;;;11.25;6.15;;;0.90;90.70;;;;;;5099597;27;20027;-76
2022/01/08 18:27:36;;;;;;;8.75;4.15;;;1.00;90.60;;;;;;5098699;28;20602;-76
2022/01/08 18:30:04;;;;;;;6.65;3.85;;;1.00;90.50;;;;;;5103121;28;20059;-75
2022/01/08 18:32:30;;;;;;;6.50;3.30;;;1.10;90.10;;;;;;5102062;28;20550;-76
2022/01/08 18:34:55;;;;;;;6.43;3.53;;;1.00;90.10;;;;;;5099244;28;20152;-77
2022/01/08 18:37:21;;;;;;;6.60;3.00;;;0.90;90.70;;;;;;5096464;28;20034;-78
2022/01/08 18:39:47;;;;;;;6.85;3.95;;;0.80;90.60;;;;;;5088741;28;20028;-77
2022/01/08 18:42:13;;;;;;;11.20;4.00;;;0.80;90.40;;;;;;5097672;28;20229;-78
2022/01/08 18:44:38;;;;;;;8.30;4.05;;;0.70;90.50;;;;;;5099943;28;20039;-77
2022/01/08 18:47:04;;;;;;;9.40;4.53;;;0.80;90.30;;;;;;5089869;28;20487;-77
2022/01/08 18:49:32;;;;;;;10.10;5.18;;;0.80;90.30;;;;;;5094075;28;20024;-78
2022/01/08 18:51:58;;;;;;;11.10;5.00;;;0.90;90.60;;;;;;5097829;28;20032;-77
2022/01/08 18:54:24;;;;;;;9.63;5.10;;;0.70;90.80;;;;;;5095829;28;20043;-78
2022/01/08 18:56:49;;;;;;;13.52;5.63;;;0.80;90.50;;;;;;5095892;28;20053;-77
2022/01/08 18:59:16;;;;;;;10.55;4.80;;;0.80;90.60;;;;;;5100371;28;20036;-75
2022/01/08 19:01:42;;;;;;;11.20;4.78;;;0.80;90.70;;;;;;5093618;28;20070;-76
2022/01/08 19:04:07;;;;;;;9.13;4.75;;;0.80;90.50;;;;;;5102105;28;20070;-76
2022/01/08 19:06:33;;;;;;;9.98;3.75;;;0.80;90.50;;;;;;5103468;28;20031;-74
2022/01/08 19:08:59;;;;;;;8.40;3.97;;;0.80;90.60;;;;;;5098472;28;20099;-75
2022/01/08 19:11:24;;;;;;;9.55;3.95;;;0.90;90.40;;;;;;5093357;28;20031;-76
2022/01/08 19:13:50;;;;;;;9.32;4.53;;;0.80;90.70;;;;;;5092628;28;20779;-75
2022/01/08 19:16:16;;;;;;;9.98;5.03;;;0.80;90.40;;;;;;5093077;28;20077;-75
2022/01/08 19:18:42;;;;;;;8.85;4.80;;;0.80;90.30;;;;;;5098279;28;20505;-75
2022/01/08 19:21:08;;;;;;;11.00;4.85;;;0.80;90.50;;;;;;5102779;28;20032;-76
2022/01/08 19:23:34;;;;;;;7.30;3.95;;;0.90;90.00;;;;;;5092987;28;20036;-76
2022/01/08 19:26:02;;;;;;;6.47;3.35;;;1.00;90.00;;;;;;5090221;28;20032;-76
2022/01/08 19:28:29;;;;;;;7.40;3.22;;;1.00;90.10;;;;;;5094029;28;20946;-75
2022/01/08 19:30:55;;;;;;;16.38;5.03;;;1.00;90.00;;;;;;5101423;28;20034;-75
2022/01/08 19:33:21;;;;;;;7.25;3.80;;;1.00;90.00;;;;;;5092607;28;20039;-75
2022/01/08 19:35:48;;;;;;;9.93;4.00;;;0.90;90.20;;;;;;5088837;28;20031;-75
2022/01/08 19:38:14;;;;;;;6.07;3.13;;;0.90;90.20;;;;;;5100535;28;20023;-74
2022/01/08 19:40:42;;;;;;;11.10;4.30;;;1.00;90.20;;;;;;5086284;28;20031;-74
2022/01/08 19:43:08;;;;;;;6.93;3.60;;;1.00;89.80;;;;;;5092309;28;20050;-75
2022/01/08 19:45:34;;;;;;;8.77;5.28;;;0.80;90.40;;;;;;5087598;28;20173;-77
2022/01/08 19:48:00;;;;;;;6.70;3.58;;;0.80;90.50;;;;;;5089821;28;20114;-75
2022/01/08 19:50:26;;;;;;;6.05;3.15;;;0.80;90.70;;;;;;5089991;28;20035;-76
2022/01/08 19:52:51;;;;;;;6.63;2.72;;;0.80;90.80;;;;;;5100383;28;20465;-75
2022/01/08 19:55:17;;;;;;;5.50;2.80;;;0.80;90.80;;;;;;5086716;28;20479;-74
2022/01/08 19:57:44;;;;;;;6.22;3.40;;;0.90;90.80;;;;;;5087316;28;20571;-74
2022/01/08 20:00:11;;;;;;;5.30;3.08;;;0.80;91.10;;;;;;5086149;28;20312;-76
2022/01/08 20:02:37;;;;;;;5.70;3.13;;;0.80;91.40;;;;;;5085389;28;20532;-74
2022/01/08 20:05:05;;;;;;;7.07;3.00;;;0.70;91.10;;;;;;5089142;28;20031;-74
2022/01/08 20:07:32;;;;;;;7.03;3.08;;;0.60;90.90;;;;;;5085813;28;20024;-74
2022/01/08 20:09:58;;;;;;;6.10;2.85;;;0.50;91.20;;;;;;5092085;28;20504;-73
2022/01/08 20:12:25;;;;;;;11.40;5.40;;;0.40;91.50;;;;;;5097627;28;20043;-74
2022/01/08 20:14:51;;;;;;;10.93;6.78;;;0.40;91.40;;;;;;5094826;28;20836;-73
2022/01/08 20:17:16;;;;;;;10.25;6.22;;;0.50;91.60;;;;;;5090864;28;20547;-73
2022/01/08 20:19:43;;;;;;;12.00;7.10;;;0.50;91.60;;;;;;5096589;28;20028;-72
2022/01/08 20:22:09;;;;;;;8.35;4.53;;;0.60;92.00;;;;;;5092739;28;20366;-72
2022/01/08 20:24:35;;;;;;;8.73;4.55;;;0.60;92.20;;;;;;5100493;28;20096;-73
2022/01/08 20:27:02;;;;;;;7.40;3.42;;;0.50;92.30;;;;;;5100829;28;20035;-73
2022/01/08 20:29:28;;;;;;;7.53;3.63;;;0.30;92.20;;;;;;5095743;28;20579;-73
2022/01/08 20:31:56;;;;;;;6.97;3.05;;;0.20;91.90;;;;;;5098098;28;20066;-73
2022/01/08 20:34:22;;;;;;;6.32;3.70;;;0.20;91.90;;;;;;5090004;28;20503;-73
2022/01/08 20:36:48;;;;;;;7.22;3.35;;;0.00;92.10;;;;;;5099330;28;20147;-73
2022/01/08 20:39:14;;;;;;;6.97;3.03;;;0.10;92.00;;;;;;5099476;28;20028;-74
2022/01/08 20:41:39;;;;;;;6.97;2.90;;;0.00;92.00;;;;;;5098516;28;20106;-73
2022/01/08 20:44:05;;;;;;;4.60;2.40;;;0.20;91.70;;;;;;5101867;28;20035;-74
2022/01/08 20:46:31;;;;;;;7.57;3.15;;;0.40;91.00;;;;;;5101382;28;20031;-73
2022/01/08 20:48:57;;;;;;;5.90;2.13;;;0.70;90.70;;;;;;5100206;28;20028;-73
2022/01/08 20:51:23;;;;;;;6.57;3.25;;;0.60;90.90;;;;;;5089398;28;20102;-73
2022/01/08 20:53:49;;;;;;;5.18;2.80;;;0.50;90.90;;;;;;5089980;28;20044;-73
2022/01/08 20:56:17;;;;;;;4.78;2.40;;;0.40;91.20;;;;;;5098167;28;20035;-73
2022/01/08 20:58:46;;;;;;;5.97;2.40;;;0.30;91.20;;;;;;5099188;28;20042;-73
2022/01/08 21:01:14;;;;;;;6.60;2.42;;;0.50;90.90;;;;;;5101981;28;20031;-73